sensor_id;sensor_type;location;lat;lon;timestamp;temperature;humidity
67572;SHT31;54397;47.506;19.158;2024-02-28T00:01:38;13.95;70.35
67572;SHT31;54397;47.506;19.158;2024-02-28T00:04:59;13.87;70.68
67572;SHT31;54397;47.506;19.158;2024-02-28T00:08:21;14.05;69.94
67572;SHT31;54397;47.506;19.158;2024-02-28T00:11:44;13.99;70.19
67572;SHT31;54397;47.506;19.158;2024-02-28T00:15:06;13.92;70.28
67572;SHT31;54397;47.506;19.158;2024-02-28T00:18:35;14.05;69.55
67572;SHT31;54397;47.506;19.158;2024-02-28T00:21:57;13.93;69.55
67572;SHT31;54397;47.506;19.158;2024-02-28T00:25:23;13.99;69.40
67572;SHT31;54397;47.506;19.158;2024-02-28T00:28:50;13.79;69.94
67572;SHT31;54397;47.506;19.158;2024-02-28T00:32:15;13.87;69.14
67572;SHT31;54397;47.506;19.158;2024-02-28T00:35:36;14.02;68.66
67572;SHT31;54397;47.506;19.158;2024-02-28T00:39:03;13.69;69.92
67572;SHT31;54397;47.506;19.158;2024-02-28T00:42:25;13.71;69.82
67572;SHT31;54397;47.506;19.158;2024-02-28T00:45:50;13.74;70.00
67572;SHT31;54397;47.506;19.158;2024-02-28T00:49:12;13.66;69.97
67572;SHT31;54397;47.506;19.158;2024-02-28T00:52:34;13.76;69.86
67572;SHT31;54397;47.506;19.158;2024-02-28T00:55:58;13.81;69.54
67572;SHT31;54397;47.506;19.158;2024-02-28T00:59:22;13.79;69.78
67572;SHT31;54397;47.506;19.158;2024-02-28T01:02:46;13.68;70.22
67572;SHT31;54397;47.506;19.158;2024-02-28T01:06:10;13.68;70.01
67572;SHT31;54397;47.506;19.158;2024-02-28T01:09:37;13.65;70.17
67572;SHT31;54397;47.506;19.158;2024-02-28T01:13:03;13.55;70.42
67572;SHT31;54397;47.506;19.158;2024-02-28T01:16:25;13.58;70.22
67572;SHT31;54397;47.506;19.158;2024-02-28T01:19:47;13.48;70.90
67572;SHT31;54397;47.506;19.158;2024-02-28T01:23:11;13.34;71.13
67572;SHT31;54397;47.506;19.158;2024-02-28T01:26:32;13.33;71.15
67572;SHT31;54397;47.506;19.158;2024-02-28T01:29:54;13.61;70.43
67572;SHT31;54397;47.506;19.158;2024-02-28T01:33:16;13.50;70.63
67572;SHT31;54397;47.506;19.158;2024-02-28T01:36:37;13.30;71.54
67572;SHT31;54397;47.506;19.158;2024-02-28T01:40:01;13.45;70.68
67572;SHT31;54397;47.506;19.158;2024-02-28T01:43:25;13.41;70.86
67572;SHT31;54397;47.506;19.158;2024-02-28T01:46:47;13.37;71.01
67572;SHT31;54397;47.506;19.158;2024-02-28T01:50:10;13.36;71.20
67572;SHT31;54397;47.506;19.158;2024-02-28T01:53:35;13.40;70.60
67572;SHT31;54397;47.506;19.158;2024-02-28T01:56:57;13.03;71.73
67572;SHT31;54397;47.506;19.158;2024-02-28T02:00:19;12.92;71.69
67572;SHT31;54397;47.506;19.158;2024-02-28T02:03:43;13.06;70.87
67572;SHT31;54397;47.506;19.158;2024-02-28T02:07:07;13.09;70.57
67572;SHT31;54397;47.506;19.158;2024-02-28T02:10:31;13.17;70.05
67572;SHT31;54397;47.506;19.158;2024-02-28T02:13:55;13.13;70.10
67572;SHT31;54397;47.506;19.158;2024-02-28T02:17:20;13.07;69.75
67572;SHT31;54397;47.506;19.158;2024-02-28T02:20:50;13.13;69.78
67572;SHT31;54397;47.506;19.158;2024-02-28T02:24:17;13.00;70.08
67572;SHT31;54397;47.506;19.158;2024-02-28T02:27:38;13.00;70.47
67572;SHT31;54397;47.506;19.158;2024-02-28T02:31:00;13.13;69.88
67572;SHT31;54397;47.506;19.158;2024-02-28T02:34:24;13.06;70.51
67572;SHT31;54397;47.506;19.158;2024-02-28T02:37:48;13.07;70.27
67572;SHT31;54397;47.506;19.158;2024-02-28T02:41:12;13.20;69.31
67572;SHT31;54397;47.506;19.158;2024-02-28T02:44:36;13.17;69.37
67572;SHT31;54397;47.506;19.158;2024-02-28T02:47:59;13.17;69.36
67572;SHT31;54397;47.506;19.158;2024-02-28T02:51:24;13.17;69.53
67572;SHT31;54397;47.506;19.158;2024-02-28T02:54:50;13.14;70.09
67572;SHT31;54397;47.506;19.158;2024-02-28T02:58:12;13.13;69.81
67572;SHT31;54397;47.506;19.158;2024-02-28T03:01:36;12.97;70.51
67572;SHT31;54397;47.506;19.158;2024-02-28T03:04:58;13.06;70.08
67572;SHT31;54397;47.506;19.158;2024-02-28T03:08:19;12.95;70.53
67572;SHT31;54397;47.506;19.158;2024-02-28T03:11:44;13.09;70.36
67572;SHT31;54397;47.506;19.158;2024-02-28T03:15:08;12.97;70.78
67572;SHT31;54397;47.506;19.158;2024-02-28T03:18:29;12.96;71.08
67572;SHT31;54397;47.506;19.158;2024-02-28T03:21:54;13.16;70.80
67572;SHT31;54397;47.506;19.158;2024-02-28T03:25:16;13.16;70.57
67572;SHT31;54397;47.506;19.158;2024-02-28T03:28:38;13.20;70.37
67572;SHT31;54397;47.506;19.158;2024-02-28T03:32:01;13.21;69.98
67572;SHT31;54397;47.506;19.158;2024-02-28T03:35:23;13.18;69.05
67572;SHT31;54397;47.506;19.158;2024-02-28T03:38:44;13.16;69.29
67572;SHT31;54397;47.506;19.158;2024-02-28T03:42:09;13.23;68.55
67572;SHT31;54397;47.506;19.158;2024-02-28T03:45:30;13.20;68.69
67572;SHT31;54397;47.506;19.158;2024-02-28T03:48:54;13.09;68.38
67572;SHT31;54397;47.506;19.158;2024-02-28T03:52:16;13.14;68.58
67572;SHT31;54397;47.506;19.158;2024-02-28T03:55:42;13.27;68.24
67572;SHT31;54397;47.506;19.158;2024-02-28T03:59:07;13.23;68.24
67572;SHT31;54397;47.506;19.158;2024-02-28T04:02:31;13.18;68.68
67572;SHT31;54397;47.506;19.158;2024-02-28T04:05:55;13.26;68.04
67572;SHT31;54397;47.506;19.158;2024-02-28T04:09:22;13.20;68.03
67572;SHT31;54397;47.506;19.158;2024-02-28T04:12:44;13.21;67.76
67572;SHT31;54397;47.506;19.158;2024-02-28T04:16:09;13.30;67.66
67572;SHT31;54397;47.506;19.158;2024-02-28T04:19:34;13.36;67.51
67572;SHT31;54397;47.506;19.158;2024-02-28T04:23:01;13.09;68.73
67572;SHT31;54397;47.506;19.158;2024-02-28T04:26:26;13.16;68.85
67572;SHT31;54397;47.506;19.158;2024-02-28T04:29:50;13.14;68.81
67572;SHT31;54397;47.506;19.158;2024-02-28T04:33:17;13.23;68.74
67572;SHT31;54397;47.506;19.158;2024-02-28T04:36:38;13.27;68.20
67572;SHT31;54397;47.506;19.158;2024-02-28T04:40:05;13.33;68.13
67572;SHT31;54397;47.506;19.158;2024-02-28T04:43:28;13.06;69.38
67572;SHT31;54397;47.506;19.158;2024-02-28T04:46:49;12.92;70.06
67572;SHT31;54397;47.506;19.158;2024-02-28T04:50:17;12.90;70.30
67572;SHT31;54397;47.506;19.158;2024-02-28T04:53:45;12.70;70.26
67572;SHT31;54397;47.506;19.158;2024-02-28T04:57:10;13.06;68.89
67572;SHT31;54397;47.506;19.158;2024-02-28T05:00:34;13.14;68.34
67572;SHT31;54397;47.506;19.158;2024-02-28T05:03:56;13.04;68.23
67572;SHT31;54397;47.506;19.158;2024-02-28T05:07:20;13.17;67.75
67572;SHT31;54397;47.506;19.158;2024-02-28T05:10:42;13.06;68.58
67572;SHT31;54397;47.506;19.158;2024-02-28T05:14:06;13.03;68.43
67572;SHT31;54397;47.506;19.158;2024-02-28T05:17:27;13.04;68.59
67572;SHT31;54397;47.506;19.158;2024-02-28T05:20:49;13.21;67.52
67572;SHT31;54397;47.506;19.158;2024-02-28T05:24:11;13.09;68.13
67572;SHT31;54397;47.506;19.158;2024-02-28T05:27:33;13.17;67.21
67572;SHT31;54397;47.506;19.158;2024-02-28T05:30:57;13.03;67.41
67572;SHT31;54397;47.506;19.158;2024-02-28T05:34:19;13.03;67.52
67572;SHT31;54397;47.506;19.158;2024-02-28T05:37:43;13.13;67.71
67572;SHT31;54397;47.506;19.158;2024-02-28T05:41:05;13.21;67.55
67572;SHT31;54397;47.506;19.158;2024-02-28T05:44:27;13.27;67.05
67572;SHT31;54397;47.506;19.158;2024-02-28T05:47:48;13.17;67.35
67572;SHT31;54397;47.506;19.158;2024-02-28T05:51:12;13.14;67.34
67572;SHT31;54397;47.506;19.158;2024-02-28T05:54:40;13.24;67.27
67572;SHT31;54397;47.506;19.158;2024-02-28T05:58:06;13.18;67.23
67572;SHT31;54397;47.506;19.158;2024-02-28T06:01:30;13.04;67.46
67572;SHT31;54397;47.506;19.158;2024-02-28T06:04:52;13.06;67.83
67572;SHT31;54397;47.506;19.158;2024-02-28T06:08:14;13.02;67.79
67572;SHT31;54397;47.506;19.158;2024-02-28T06:11:38;12.88;68.45
67572;SHT31;54397;47.506;19.158;2024-02-28T06:15:00;12.95;68.24
67572;SHT31;54397;47.506;19.158;2024-02-28T06:18:22;12.99;67.67
67572;SHT31;54397;47.506;19.158;2024-02-28T06:21:51;13.20;67.06
67572;SHT31;54397;47.506;19.158;2024-02-28T06:25:12;13.07;68.09
67572;SHT31;54397;47.506;19.158;2024-02-28T06:28:41;13.03;67.91
67572;SHT31;54397;47.506;19.158;2024-02-28T06:32:06;13.09;67.60
67572;SHT31;54397;47.506;19.158;2024-02-28T06:35:28;13.14;67.11
67572;SHT31;54397;47.506;19.158;2024-02-28T06:38:52;13.17;66.70
67572;SHT31;54397;47.506;19.158;2024-02-28T06:42:13;13.11;66.56
67572;SHT31;54397;47.506;19.158;2024-02-28T06:45:35;13.17;66.63
67572;SHT31;54397;47.506;19.158;2024-02-28T06:48:59;13.11;66.96
67572;SHT31;54397;47.506;19.158;2024-02-28T06:52:20;13.06;66.86
67572;SHT31;54397;47.506;19.158;2024-02-28T06:55:45;13.16;66.85
67572;SHT31;54397;47.506;19.158;2024-02-28T06:59:08;13.07;67.32
67572;SHT31;54397;47.506;19.158;2024-02-28T07:02:33;13.27;66.85
67572;SHT31;54397;47.506;19.158;2024-02-28T07:05:55;13.36;66.44
67572;SHT31;54397;47.506;19.158;2024-02-28T07:09:16;13.31;66.49
67572;SHT31;54397;47.506;19.158;2024-02-28T07:12:38;13.24;66.52
67572;SHT31;54397;47.506;19.158;2024-02-28T07:16:07;13.27;65.98
67572;SHT31;54397;47.506;19.158;2024-02-28T07:19:31;13.27;66.22
67572;SHT31;54397;47.506;19.158;2024-02-28T07:22:53;13.34;65.98
67572;SHT31;54397;47.506;19.158;2024-02-28T07:26:16;13.51;65.76
67572;SHT31;54397;47.506;19.158;2024-02-28T07:29:47;13.76;65.09
67572;SHT31;54397;47.506;19.158;2024-02-28T07:33:09;13.96;65.11
67572;SHT31;54397;47.506;19.158;2024-02-28T07:36:33;14.30;64.44
67572;SHT31;54397;47.506;19.158;2024-02-28T07:39:55;14.54;63.73
67572;SHT31;54397;47.506;19.158;2024-02-28T07:43:17;14.70;63.11
67572;SHT31;54397;47.506;19.158;2024-02-28T07:46:41;14.89;62.51
67572;SHT31;54397;47.506;19.158;2024-02-28T07:50:03;15.36;61.16
67572;SHT31;54397;47.506;19.158;2024-02-28T07:53:24;15.61;60.69
67572;SHT31;54397;47.506;19.158;2024-02-28T07:56:49;15.75;59.59
67572;SHT31;54397;47.506;19.158;2024-02-28T08:00:12;15.83;58.71
67572;SHT31;54397;47.506;19.158;2024-02-28T08:03:35;15.87;57.73
67572;SHT31;54397;47.506;19.158;2024-02-28T08:06:56;15.46;59.62
67572;SHT31;54397;47.506;19.158;2024-02-28T08:10:20;15.10;59.67
67572;SHT31;54397;47.506;19.158;2024-02-28T08:13:42;15.35;59.64
67572;SHT31;54397;47.506;19.158;2024-02-28T08:17:05;15.46;59.37
67572;SHT31;54397;47.506;19.158;2024-02-28T08:20:26;15.39;59.85
67572;SHT31;54397;47.506;19.158;2024-02-28T08:23:48;15.37;59.59
67572;SHT31;54397;47.506;19.158;2024-02-28T08:27:10;15.42;59.96
67572;SHT31;54397;47.506;19.158;2024-02-28T08:30:34;15.47;59.49
67572;SHT31;54397;47.506;19.158;2024-02-28T08:33:56;15.37;60.02
67572;SHT31;54397;47.506;19.158;2024-02-28T08:37:20;15.47;60.29
67572;SHT31;54397;47.506;19.158;2024-02-28T08:40:42;15.77;59.12
67572;SHT31;54397;47.506;19.158;2024-02-28T08:44:07;15.74;59.01
67572;SHT31;54397;47.506;19.158;2024-02-28T08:47:28;15.78;58.13
67572;SHT31;54397;47.506;19.158;2024-02-28T08:50:53;15.67;58.14
67572;SHT31;54397;47.506;19.158;2024-02-28T08:54:17;15.95;58.21
67572;SHT31;54397;47.506;19.158;2024-02-28T08:57:39;15.83;58.11
67572;SHT31;54397;47.506;19.158;2024-02-28T09:01:00;15.97;58.60
67572;SHT31;54397;47.506;19.158;2024-02-28T09:04:28;15.98;58.94
67572;SHT31;54397;47.506;19.158;2024-02-28T09:07:50;16.11;58.60
67572;SHT31;54397;47.506;19.158;2024-02-28T09:11:15;16.40;57.51
67572;SHT31;54397;47.506;19.158;2024-02-28T09:14:37;16.46;57.26
67572;SHT31;54397;47.506;19.158;2024-02-28T09:18:01;16.70;57.78
67572;SHT31;54397;47.506;19.158;2024-02-28T09:21:22;17.11;55.56
67572;SHT31;54397;47.506;19.158;2024-02-28T09:24:44;17.36;55.11
67572;SHT31;54397;47.506;19.158;2024-02-28T09:28:06;17.50;55.28
67572;SHT31;54397;47.506;19.158;2024-02-28T09:31:27;17.77;54.15
67572;SHT31;54397;47.506;19.158;2024-02-28T09:34:51;17.79;53.79
67572;SHT31;54397;47.506;19.158;2024-02-28T09:38:16;18.04;53.74
67572;SHT31;54397;47.506;19.158;2024-02-28T09:41:37;18.03;53.75
67572;SHT31;54397;47.506;19.158;2024-02-28T09:45:00;18.17;54.27
67572;SHT31;54397;47.506;19.158;2024-02-28T09:48:27;18.59;52.47
67572;SHT31;54397;47.506;19.158;2024-02-28T09:51:52;18.82;51.91
67572;SHT31;54397;47.506;19.158;2024-02-28T09:55:16;19.18;51.81
67572;SHT31;54397;47.506;19.158;2024-02-28T09:58:41;19.41;50.56
67572;SHT31;54397;47.506;19.158;2024-02-28T10:02:09;19.55;50.87
67572;SHT31;54397;47.506;19.158;2024-02-28T10:05:33;19.72;49.95
67572;SHT31;54397;47.506;19.158;2024-02-28T10:08:58;19.92;49.34
67572;SHT31;54397;47.506;19.158;2024-02-28T10:12:20;19.81;49.03
67572;SHT31;54397;47.506;19.158;2024-02-28T10:15:41;19.82;48.80
67572;SHT31;54397;47.506;19.158;2024-02-28T10:19:04;19.75;49.64
67572;SHT31;54397;47.506;19.158;2024-02-28T10:22:26;19.92;49.22
67572;SHT31;54397;47.506;19.158;2024-02-28T10:25:48;20.20;48.56
67572;SHT31;54397;47.506;19.158;2024-02-28T10:29:21;20.51;47.68
67572;SHT31;54397;47.506;19.158;2024-02-28T10:32:51;20.60;48.28
67572;SHT31;54397;47.506;19.158;2024-02-28T10:36:15;20.71;47.88
67572;SHT31;54397;47.506;19.158;2024-02-28T10:39:38;21.03;46.81
67572;SHT31;54397;47.506;19.158;2024-02-28T10:43:00;20.92;46.91
67572;SHT31;54397;47.506;19.158;2024-02-28T10:46:24;20.84;47.41
67572;SHT31;54397;47.506;19.158;2024-02-28T10:50:00;20.94;47.62
67572;SHT31;54397;47.506;19.158;2024-02-28T10:53:37;21.06;46.87
67572;SHT31;54397;47.506;19.158;2024-02-28T10:57:07;21.39;46.31
67572;SHT31;54397;47.506;19.158;2024-02-28T11:00:31;21.63;46.01
67572;SHT31;54397;47.506;19.158;2024-02-28T11:03:54;21.53;45.98
67572;SHT31;54397;47.506;19.158;2024-02-28T11:07:19;21.77;46.55
67572;SHT31;54397;47.506;19.158;2024-02-28T11:10:41;21.85;45.22
67572;SHT31;54397;47.506;19.158;2024-02-28T11:14:14;22.02;44.75
67572;SHT31;54397;47.506;19.158;2024-02-28T11:17:39;22.16;44.85
67572;SHT31;54397;47.506;19.158;2024-02-28T11:21:01;21.81;45.53
67572;SHT31;54397;47.506;19.158;2024-02-28T11:24:32;21.84;45.53
67572;SHT31;54397;47.506;19.158;2024-02-28T11:27:55;22.04;44.62
67572;SHT31;54397;47.506;19.158;2024-02-28T11:31:20;22.19;44.60
67572;SHT31;54397;47.506;19.158;2024-02-28T11:34:42;22.29;44.33
67572;SHT31;54397;47.506;19.158;2024-02-28T11:38:06;22.45;44.86
67572;SHT31;54397;47.506;19.158;2024-02-28T11:41:28;22.64;43.72
67572;SHT31;54397;47.506;19.158;2024-02-28T11:44:55;22.50;44.73
67572;SHT31;54397;47.506;19.158;2024-02-28T11:48:22;22.59;44.58
67572;SHT31;54397;47.506;19.158;2024-02-28T11:51:44;22.73;44.44
67572;SHT31;54397;47.506;19.158;2024-02-28T11:55:07;22.63;44.57
67572;SHT31;54397;47.506;19.158;2024-02-28T11:58:29;22.69;43.83
67572;SHT31;54397;47.506;19.158;2024-02-28T12:01:53;22.36;44.26
67572;SHT31;54397;47.506;19.158;2024-02-28T12:05:22;22.05;44.31
67572;SHT31;54397;47.506;19.158;2024-02-28T12:08:44;21.84;45.74
67572;SHT31;54397;47.506;19.158;2024-02-28T12:12:09;21.81;46.51
67572;SHT31;54397;47.506;19.158;2024-02-28T12:15:33;21.74;46.69
67572;SHT31;54397;47.506;19.158;2024-02-28T12:18:55;21.78;45.84
67572;SHT31;54397;47.506;19.158;2024-02-28T12:22:19;21.61;45.20
67572;SHT31;54397;47.506;19.158;2024-02-28T12:25:41;21.23;46.30
67572;SHT31;54397;47.506;19.158;2024-02-28T12:29:03;21.05;46.79
67572;SHT31;54397;47.506;19.158;2024-02-28T12:32:24;21.00;47.34
67572;SHT31;54397;47.506;19.158;2024-02-28T12:35:46;20.68;47.92
67572;SHT31;54397;47.506;19.158;2024-02-28T12:39:10;20.63;48.10
67572;SHT31;54397;47.506;19.158;2024-02-28T12:42:32;20.63;48.24
67572;SHT31;54397;47.506;19.158;2024-02-28T12:45:54;20.44;48.62
67572;SHT31;54397;47.506;19.158;2024-02-28T12:49:16;20.36;49.01
67572;SHT31;54397;47.506;19.158;2024-02-28T12:52:40;20.26;49.20
67572;SHT31;54397;47.506;19.158;2024-02-28T12:56:02;20.12;49.42
67572;SHT31;54397;47.506;19.158;2024-02-28T12:59:24;19.96;50.54
67572;SHT31;54397;47.506;19.158;2024-02-28T13:02:46;20.06;49.44
67572;SHT31;54397;47.506;19.158;2024-02-28T13:06:07;19.97;49.87
67572;SHT31;54397;47.506;19.158;2024-02-28T13:09:31;19.97;50.64
67572;SHT31;54397;47.506;19.158;2024-02-28T13:12:53;19.93;50.32
67572;SHT31;54397;47.506;19.158;2024-02-28T13:16:18;20.00;50.84
67572;SHT31;54397;47.506;19.158;2024-02-28T13:19:40;19.95;50.47
67572;SHT31;54397;47.506;19.158;2024-02-28T13:23:04;19.95;50.64
67572;SHT31;54397;47.506;19.158;2024-02-28T13:26:26;19.93;50.46
67572;SHT31;54397;47.506;19.158;2024-02-28T13:29:50;19.61;50.19
67572;SHT31;54397;47.506;19.158;2024-02-28T13:33:12;19.48;51.85
67572;SHT31;54397;47.506;19.158;2024-02-28T13:36:34;19.54;52.29
67572;SHT31;54397;47.506;19.158;2024-02-28T13:39:58;19.59;52.05
67572;SHT31;54397;47.506;19.158;2024-02-28T13:43:20;19.62;51.72
67572;SHT31;54397;47.506;19.158;2024-02-28T13:46:45;19.48;52.18
67572;SHT31;54397;47.506;19.158;2024-02-28T13:50:09;19.58;51.24
67572;SHT31;54397;47.506;19.158;2024-02-28T13:53:34;19.78;51.02
67572;SHT31;54397;47.506;19.158;2024-02-28T13:56:56;19.72;51.18
67572;SHT31;54397;47.506;19.158;2024-02-28T14:00:20;19.72;50.56
67572;SHT31;54397;47.506;19.158;2024-02-28T14:03:42;19.51;51.67
67572;SHT31;54397;47.506;19.158;2024-02-28T14:07:04;19.59;51.00
67572;SHT31;54397;47.506;19.158;2024-02-28T14:10:26;19.50;51.51
67572;SHT31;54397;47.506;19.158;2024-02-28T14:13:50;19.45;51.51
67572;SHT31;54397;47.506;19.158;2024-02-28T14:17:12;19.54;50.90
67572;SHT31;54397;47.506;19.158;2024-02-28T14:20:37;19.41;51.52
67572;SHT31;54397;47.506;19.158;2024-02-28T14:24:02;19.35;52.00
67572;SHT31;54397;47.506;19.158;2024-02-28T14:27:23;19.45;50.92
67572;SHT31;54397;47.506;19.158;2024-02-28T14:30:49;19.26;51.38
67572;SHT31;54397;47.506;19.158;2024-02-28T14:34:16;19.21;52.05
67572;SHT31;54397;47.506;19.158;2024-02-28T14:37:40;19.28;52.04
67572;SHT31;54397;47.506;19.158;2024-02-28T14:41:05;18.97;52.49
67572;SHT31;54397;47.506;19.158;2024-02-28T14:44:28;19.14;52.09
67572;SHT31;54397;47.506;19.158;2024-02-28T14:47:50;19.09;52.51
67572;SHT31;54397;47.506;19.158;2024-02-28T14:51:12;19.21;52.22
67572;SHT31;54397;47.506;19.158;2024-02-28T14:54:36;19.16;52.06
67572;SHT31;54397;47.506;19.158;2024-02-28T14:57:57;18.85;53.09
67572;SHT31;54397;47.506;19.158;2024-02-28T15:01:22;18.85;53.37
67572;SHT31;54397;47.506;19.158;2024-02-28T15:04:53;18.86;53.73
67572;SHT31;54397;47.506;19.158;2024-02-28T15:08:15;18.95;53.29
67572;SHT31;54397;47.506;19.158;2024-02-28T15:11:37;18.92;53.52
67572;SHT31;54397;47.506;19.158;2024-02-28T15:14:59;18.92;53.12
67572;SHT31;54397;47.506;19.158;2024-02-28T15:18:21;18.79;53.89
67572;SHT31;54397;47.506;19.158;2024-02-28T15:21:44;18.83;53.98
67572;SHT31;54397;47.506;19.158;2024-02-28T15:25:06;18.79;53.50
67572;SHT31;54397;47.506;19.158;2024-02-28T15:28:31;18.70;54.37
67572;SHT31;54397;47.506;19.158;2024-02-28T15:31:53;18.66;55.17
67572;SHT31;54397;47.506;19.158;2024-02-28T15:35:17;18.47;55.86
67572;SHT31;54397;47.506;19.158;2024-02-28T15:38:38;18.41;56.36
67572;SHT31;54397;47.506;19.158;2024-02-28T15:42:01;18.42;56.25
67572;SHT31;54397;47.506;19.158;2024-02-28T15:45:25;18.20;56.53
67572;SHT31;54397;47.506;19.158;2024-02-28T15:48:47;18.07;57.35
67572;SHT31;54397;47.506;19.158;2024-02-28T15:52:09;17.89;58.06
67572;SHT31;54397;47.506;19.158;2024-02-28T15:55:33;17.97;57.89
67572;SHT31;54397;47.506;19.158;2024-02-28T15:58:58;17.76;58.61
67572;SHT31;54397;47.506;19.158;2024-02-28T16:02:19;17.75;58.20
67572;SHT31;54397;47.506;19.158;2024-02-28T16:05:44;17.87;57.50
67572;SHT31;54397;47.506;19.158;2024-02-28T16:09:06;17.76;57.64
67572;SHT31;54397;47.506;19.158;2024-02-28T16:12:31;17.67;62.93
67572;SHT31;54397;47.506;19.158;2024-02-28T16:15:52;17.82;62.37
67572;SHT31;54397;47.506;19.158;2024-02-28T16:19:17;18.05;63.65
67572;SHT31;54397;47.506;19.158;2024-02-28T16:22:49;18.32;62.49
67572;SHT31;54397;47.506;19.158;2024-02-28T16:26:11;18.40;56.84
67572;SHT31;54397;47.506;19.158;2024-02-28T16:29:33;18.32;56.14
67572;SHT31;54397;47.506;19.158;2024-02-28T16:32:54;18.17;57.06
67572;SHT31;54397;47.506;19.158;2024-02-28T16:36:16;17.77;57.37
67572;SHT31;54397;47.506;19.158;2024-02-28T16:39:38;17.73;57.65
67572;SHT31;54397;47.506;19.158;2024-02-28T16:43:00;17.59;57.68
67572;SHT31;54397;47.506;19.158;2024-02-28T16:46:21;17.36;58.31
67572;SHT31;54397;47.506;19.158;2024-02-28T16:49:43;17.19;58.46
67572;SHT31;54397;47.506;19.158;2024-02-28T16:53:05;17.03;59.11
67572;SHT31;54397;47.506;19.158;2024-02-28T16:56:29;16.87;59.81
67572;SHT31;54397;47.506;19.158;2024-02-28T16:59:51;17.00;59.43
67572;SHT31;54397;47.506;19.158;2024-02-28T17:03:12;16.90;60.05
67572;SHT31;54397;47.506;19.158;2024-02-28T17:06:36;16.91;59.45
67572;SHT31;54397;47.506;19.158;2024-02-28T17:09:58;16.84;59.80
67572;SHT31;54397;47.506;19.158;2024-02-28T17:13:20;16.74;60.15
67572;SHT31;54397;47.506;19.158;2024-02-28T17:16:43;16.73;60.43
67572;SHT31;54397;47.506;19.158;2024-02-28T17:20:05;16.74;60.37
67572;SHT31;54397;47.506;19.158;2024-02-28T17:23:29;16.83;60.14
67572;SHT31;54397;47.506;19.158;2024-02-28T17:26:51;16.77;60.33
67572;SHT31;54397;47.506;19.158;2024-02-28T17:30:17;16.71;60.57
67572;SHT31;54397;47.506;19.158;2024-02-28T17:33:39;16.43;61.31
67572;SHT31;54397;47.506;19.158;2024-02-28T17:37:03;16.50;61.25
67572;SHT31;54397;47.506;19.158;2024-02-28T17:40:25;16.34;61.67
67572;SHT31;54397;47.506;19.158;2024-02-28T17:43:47;16.40;61.82
67572;SHT31;54397;47.506;19.158;2024-02-28T17:47:08;16.42;61.31
67572;SHT31;54397;47.506;19.158;2024-02-28T17:50:30;16.16;62.46
67572;SHT31;54397;47.506;19.158;2024-02-28T17:53:56;16.04;63.16
67572;SHT31;54397;47.506;19.158;2024-02-28T17:57:18;16.22;62.18
67572;SHT31;54397;47.506;19.158;2024-02-28T18:00:40;16.16;62.35
67572;SHT31;54397;47.506;19.158;2024-02-28T18:04:04;15.94;63.11
67572;SHT31;54397;47.506;19.158;2024-02-28T18:07:27;16.08;62.71
67572;SHT31;54397;47.506;19.158;2024-02-28T18:10:48;15.87;63.42
67572;SHT31;54397;47.506;19.158;2024-02-28T18:14:13;16.02;62.41
67572;SHT31;54397;47.506;19.158;2024-02-28T18:17:35;15.98;62.62
67572;SHT31;54397;47.506;19.158;2024-02-28T18:21:00;15.94;62.93
67572;SHT31;54397;47.506;19.158;2024-02-28T18:24:25;15.56;64.08
67572;SHT31;54397;47.506;19.158;2024-02-28T18:27:46;15.78;63.23
67572;SHT31;54397;47.506;19.158;2024-02-28T18:31:08;15.98;62.55
67572;SHT31;54397;47.506;19.158;2024-02-28T18:34:35;16.06;62.58
67572;SHT31;54397;47.506;19.158;2024-02-28T18:37:59;16.09;62.66
67572;SHT31;54397;47.506;19.158;2024-02-28T18:41:23;16.00;62.74
67572;SHT31;54397;47.506;19.158;2024-02-28T18:44:52;15.68;63.75
67572;SHT31;54397;47.506;19.158;2024-02-28T18:48:16;15.88;68.08
67572;SHT31;54397;47.506;19.158;2024-02-28T18:51:37;15.78;63.70
67572;SHT31;54397;47.506;19.158;2024-02-28T18:54:59;15.80;63.31
67572;SHT31;54397;47.506;19.158;2024-02-28T18:58:26;15.84;63.09
67572;SHT31;54397;47.506;19.158;2024-02-28T19:01:47;15.66;63.65
67572;SHT31;54397;47.506;19.158;2024-02-28T19:05:12;15.23;65.02
67572;SHT31;54397;47.506;19.158;2024-02-28T19:08:35;15.42;64.08
67572;SHT31;54397;47.506;19.158;2024-02-28T19:11:58;15.15;65.19
67572;SHT31;54397;47.506;19.158;2024-02-28T19:15:19;14.84;65.98
67572;SHT31;54397;47.506;19.158;2024-02-28T19:18:41;15.03;65.41
67572;SHT31;54397;47.506;19.158;2024-02-28T19:22:08;14.87;65.83
67572;SHT31;54397;47.506;19.158;2024-02-28T19:25:30;15.15;64.82
67572;SHT31;54397;47.506;19.158;2024-02-28T19:28:52;15.12;65.07
67572;SHT31;54397;47.506;19.158;2024-02-28T19:32:16;15.22;64.50
67572;SHT31;54397;47.506;19.158;2024-02-28T19:35:38;15.18;64.52
67572;SHT31;54397;47.506;19.158;2024-02-28T19:39:00;15.20;64.30
67572;SHT31;54397;47.506;19.158;2024-02-28T19:42:25;15.03;64.92
67572;SHT31;54397;47.506;19.158;2024-02-28T19:45:50;14.93;65.44
67572;SHT31;54397;47.506;19.158;2024-02-28T19:49:12;15.06;65.11
67572;SHT31;54397;47.506;19.158;2024-02-28T19:52:36;14.77;65.99
67572;SHT31;54397;47.506;19.158;2024-02-28T19:55:58;14.88;65.58
67572;SHT31;54397;47.506;19.158;2024-02-28T19:59:22;14.96;65.61
67572;SHT31;54397;47.506;19.158;2024-02-28T20:02:47;14.82;65.80
67572;SHT31;54397;47.506;19.158;2024-02-28T20:06:11;14.85;65.64
67572;SHT31;54397;47.506;19.158;2024-02-28T20:09:33;14.75;66.16
67572;SHT31;54397;47.506;19.158;2024-02-28T20:12:58;14.79;65.85
67572;SHT31;54397;47.506;19.158;2024-02-28T20:16:24;14.78;65.79
67572;SHT31;54397;47.506;19.158;2024-02-28T20:19:46;14.58;66.17
67572;SHT31;54397;47.506;19.158;2024-02-28T20:23:08;14.40;66.66
67572;SHT31;54397;47.506;19.158;2024-02-28T20:26:32;14.20;67.42
67572;SHT31;54397;47.506;19.158;2024-02-28T20:29:53;14.06;68.38
67572;SHT31;54397;47.506;19.158;2024-02-28T20:33:19;14.34;67.12
67572;SHT31;54397;47.506;19.158;2024-02-28T20:36:41;14.45;66.84
67572;SHT31;54397;47.506;19.158;2024-02-28T20:40:05;14.41;66.78
67572;SHT31;54397;47.506;19.158;2024-02-28T20:43:34;14.50;66.32
67572;SHT31;54397;47.506;19.158;2024-02-28T20:46:55;14.43;67.04
67572;SHT31;54397;47.506;19.158;2024-02-28T20:50:20;14.01;68.27
67572;SHT31;54397;47.506;19.158;2024-02-28T20:53:44;13.78;68.95
67572;SHT31;54397;47.506;19.158;2024-02-28T20:57:17;13.69;69.21
67572;SHT31;54397;47.506;19.158;2024-02-28T21:00:38;13.59;69.84
67572;SHT31;54397;47.506;19.158;2024-02-28T21:04:00;13.76;69.14